createdAt,value
2022-10-16T00:01:12.382Z,14.60
2022-10-16T00:03:40.756Z,14.60
2022-10-16T00:06:09.604Z,14.60
2022-10-16T00:08:38.576Z,14.60
2022-10-16T00:11:09.118Z,14.60
2022-10-16T00:13:40.290Z,14.60
2022-10-16T00:16:08.948Z,14.60
2022-10-16T00:18:37.490Z,14.60
2022-10-16T00:21:06.975Z,14.60
2022-10-16T00:23:35.250Z,14.60
2022-10-16T00:26:06.108Z,14.60
2022-10-16T00:28:34.350Z,14.60
2022-10-16T00:31:06.938Z,14.60
2022-10-16T00:33:35.241Z,14.60
2022-10-16T00:36:05.224Z,14.60
2022-10-16T00:38:33.558Z,14.60
2022-10-16T00:41:01.730Z,14.60
2022-10-16T00:43:40.062Z,14.60
2022-10-16T00:46:16.953Z,14.60
2022-10-16T00:48:50.634Z,14.60
2022-10-16T00:51:22.259Z,14.60
2022-10-16T00:53:50.958Z,14.60
2022-10-16T00:56:19.313Z,14.60
2022-10-16T00:58:47.536Z,14.60
2022-10-16T01:01:17.254Z,14.60
2022-10-16T01:03:46.069Z,14.50
2022-10-16T01:09:09.232Z,14.50
2022-10-16T01:11:43.781Z,14.50
2022-10-16T01:14:20.009Z,14.50
2022-10-16T01:16:55.005Z,14.50
2022-10-16T01:19:37.003Z,14.50
2022-10-16T01:22:06.752Z,14.40
2022-10-16T01:24:41.198Z,14.50
2022-10-16T01:27:15.812Z,14.50
2022-10-16T01:29:51.375Z,14.50
2022-10-16T01:32:23.836Z,14.40
2022-10-16T01:34:55.347Z,14.40
2022-10-16T01:37:30.490Z,14.40
2022-10-16T01:40:02.661Z,14.40
2022-10-16T01:42:36.556Z,14.40
2022-10-16T01:45:07.478Z,14.40
2022-10-16T01:47:36.984Z,14.40
2022-10-16T01:50:06.931Z,14.40
2022-10-16T01:52:38.892Z,14.40
2022-10-16T01:55:10.576Z,14.40
2022-10-16T01:57:43.519Z,14.40
2022-10-16T02:00:14.168Z,14.40
2022-10-16T02:02:44.158Z,14.40
2022-10-16T02:05:18.920Z,14.40
2022-10-16T02:07:47.021Z,14.40
2022-10-16T02:10:15.099Z,14.40
2022-10-16T02:12:48.707Z,14.40
2022-10-16T02:15:16.841Z,14.40
2022-10-16T02:17:44.889Z,14.30
2022-10-16T02:20:13.272Z,14.30
2022-10-16T02:22:44.819Z,14.30
2022-10-16T02:25:19.364Z,14.30
2022-10-16T02:27:55.763Z,14.30
2022-10-16T02:30:29.582Z,14.30
2022-10-16T02:32:58.647Z,14.30
2022-10-16T02:35:28.059Z,14.30
2022-10-16T02:37:57.708Z,14.30
2022-10-16T02:40:26.960Z,14.30
2022-10-16T02:42:57.403Z,14.30
2022-10-16T02:45:26.067Z,14.20
2022-10-16T02:47:54.160Z,14.30
2022-10-16T02:50:22.225Z,14.30
2022-10-16T02:52:50.561Z,14.20
2022-10-16T02:55:18.650Z,14.20
2022-10-16T02:57:47.050Z,14.20
2022-10-16T03:00:19.161Z,14.20
2022-10-16T03:02:47.661Z,14.10
2022-10-16T03:05:16.411Z,14.20
2022-10-16T03:07:44.658Z,14.20
2022-10-16T03:10:12.688Z,14.20
2022-10-16T03:12:40.877Z,14.10
2022-10-16T03:15:09.808Z,14.20
2022-10-16T03:17:39.173Z,14.20
2022-10-16T03:20:08.007Z,14.20
2022-10-16T03:22:35.955Z,14.20
2022-10-16T03:25:24.154Z,14.30
2022-10-16T03:27:52.205Z,14.30
2022-10-16T03:30:20.148Z,14.20
2022-10-16T03:32:49.474Z,14.20
2022-10-16T03:35:17.480Z,14.20
2022-10-16T03:37:45.380Z,14.20
2022-10-16T03:40:13.731Z,14.20
2022-10-16T03:42:41.880Z,14.20
2022-10-16T03:45:10.707Z,14.30
2022-10-16T03:47:38.867Z,14.30
2022-10-16T03:50:09.573Z,14.30
2022-10-16T03:52:37.560Z,14.30
2022-10-16T03:55:06.063Z,14.30
2022-10-16T03:57:34.509Z,14.30
2022-10-16T04:00:02.618Z,14.30
2022-10-16T04:02:30.597Z,14.40
2022-10-16T04:04:58.655Z,14.30
2022-10-16T04:07:28.323Z,14.30
2022-10-16T04:09:56.689Z,14.30
2022-10-16T04:12:24.839Z,14.40
2022-10-16T04:14:52.967Z,14.30
2022-10-16T04:17:21.003Z,14.40
2022-10-16T04:19:48.973Z,14.40
2022-10-16T04:22:17.045Z,14.40
2022-10-16T04:24:46.397Z,14.40
2022-10-16T04:27:14.451Z,14.40
2022-10-16T04:29:42.400Z,14.40
2022-10-16T04:32:11.098Z,14.40
2022-10-16T04:34:41.048Z,14.40
2022-10-16T04:37:09.271Z,14.40
2022-10-16T04:39:37.419Z,14.40
2022-10-16T04:42:06.841Z,14.40
2022-10-16T04:44:34.785Z,14.40
2022-10-16T04:47:02.869Z,14.40
2022-10-16T04:49:30.800Z,14.40
2022-10-16T04:51:58.782Z,14.30
2022-10-16T04:54:26.879Z,14.30
2022-10-16T04:56:54.871Z,14.30
2022-10-16T04:59:44.667Z,14.40
2022-10-16T05:02:12.812Z,14.30
2022-10-16T05:04:40.911Z,14.40
2022-10-16T05:07:09.052Z,14.40
2022-10-16T05:09:37.199Z,14.40
2022-10-16T05:12:05.523Z,14.40
2022-10-16T05:14:33.458Z,14.40
2022-10-16T05:17:03.111Z,14.40
2022-10-16T05:19:31.078Z,14.40
2022-10-16T05:21:59.015Z,14.30
2022-10-16T05:24:27.836Z,14.30
2022-10-16T05:26:56.060Z,14.30
2022-10-16T05:29:24.538Z,14.30
2022-10-16T05:31:53.929Z,14.30
2022-10-16T05:34:23.667Z,14.30
2022-10-16T05:36:52.415Z,14.30
2022-10-16T05:39:20.529Z,14.30
2022-10-16T05:41:48.551Z,14.30
2022-10-16T05:44:16.650Z,14.30
2022-10-16T05:46:44.613Z,14.30
2022-10-16T05:49:12.654Z,14.30
2022-10-16T05:51:42.216Z,14.30
2022-10-16T05:54:10.679Z,14.30
2022-10-16T05:56:38.844Z,14.30
2022-10-16T05:59:07.053Z,14.30
2022-10-16T06:01:36.143Z,14.40
2022-10-16T06:04:04.321Z,14.40
2022-10-16T06:06:32.466Z,14.30
2022-10-16T06:09:01.740Z,14.30
2022-10-16T06:11:31.257Z,14.30
2022-10-16T06:14:02.592Z,14.30
2022-10-16T06:16:31.245Z,14.30
2022-10-16T06:19:00.271Z,14.30
2022-10-16T06:21:29.889Z,14.30
2022-10-16T06:23:58.994Z,14.30
2022-10-16T06:26:30.395Z,14.40
2022-10-16T06:29:01.302Z,14.30
2022-10-16T06:31:32.002Z,14.30
2022-10-16T06:34:00.481Z,14.30
2022-10-16T06:36:28.934Z,14.30
2022-10-16T06:38:57.111Z,14.30
2022-10-16T06:41:25.301Z,14.30
2022-10-16T06:43:54.697Z,14.30
2022-10-16T06:46:25.254Z,14.40
2022-10-16T06:48:53.556Z,14.30
2022-10-16T06:51:23.973Z,14.40
2022-10-16T06:54:03.013Z,14.40
2022-10-16T06:56:33.360Z,14.40
2022-10-16T06:59:03.173Z,14.40
2022-10-16T07:01:31.581Z,14.40
2022-10-16T07:04:17.998Z,14.40
2022-10-16T07:06:48.047Z,14.40
2022-10-16T07:09:15.973Z,14.40
2022-10-16T07:11:46.780Z,14.40
2022-10-16T07:14:18.913Z,14.40
2022-10-16T07:16:46.887Z,14.40
2022-10-16T07:19:16.226Z,14.50
2022-10-16T07:21:44.370Z,14.50
2022-10-16T07:24:14.793Z,14.60
2022-10-16T07:26:44.181Z,14.60
2022-10-16T07:29:17.308Z,14.60
2022-10-16T07:31:45.827Z,14.70
2022-10-16T07:34:15.129Z,14.70
2022-10-16T07:36:43.427Z,14.80
2022-10-16T07:39:11.438Z,14.90
2022-10-16T07:41:39.411Z,14.90
2022-10-16T07:44:07.570Z,14.90
2022-10-16T07:46:37.682Z,14.90
2022-10-16T07:49:06.085Z,15.00
2022-10-16T07:51:34.161Z,15.00
2022-10-16T07:54:02.596Z,15.00
2022-10-16T07:56:32.917Z,15.00
2022-10-16T07:59:01.029Z,15.00
2022-10-16T08:01:29.222Z,15.00
2022-10-16T08:03:58.832Z,15.00
2022-10-16T08:06:27.874Z,15.00
2022-10-16T08:08:57.068Z,15.00
2022-10-16T08:11:25.337Z,15.00
2022-10-16T08:13:53.299Z,15.10
2022-10-16T08:16:21.617Z,15.10
2022-10-16T08:18:49.685Z,15.20
2022-10-16T08:21:21.786Z,15.30
2022-10-16T08:23:54.629Z,15.40
2022-10-16T08:26:27.321Z,15.50
2022-10-16T08:28:55.587Z,15.60
2022-10-16T08:31:23.701Z,15.80
2022-10-16T08:33:53.085Z,15.90
2022-10-16T08:36:22.560Z,16.10
2022-10-16T08:38:51.497Z,16.20
2022-10-16T08:41:54.014Z,16.40
2022-10-16T08:44:50.330Z,16.50
2022-10-16T08:47:22.158Z,16.70
2022-10-16T08:49:58.937Z,16.90
2022-10-16T08:52:32.846Z,17.00
2022-10-16T08:55:00.969Z,17.20
2022-10-16T08:57:29.015Z,17.30
2022-10-16T09:00:02.199Z,17.30
2022-10-16T09:02:35.036Z,17.40
2022-10-16T09:05:22.584Z,17.40
2022-10-16T09:10:50.166Z,17.60
2022-10-16T09:13:24.693Z,17.70
2022-10-16T09:15:58.937Z,17.80
2022-10-16T09:18:34.636Z,17.90
2022-10-16T09:21:11.570Z,18.00
2022-10-16T09:23:41.013Z,18.10
2022-10-16T09:26:12.890Z,18.20
2022-10-16T09:28:41.426Z,18.30
2022-10-16T09:31:23.373Z,18.40
2022-10-16T09:33:55.751Z,18.50
2022-10-16T09:36:25.941Z,18.60
2022-10-16T09:39:04.416Z,18.60
2022-10-16T09:41:32.397Z,18.80
2022-10-16T09:44:02.823Z,18.90
2022-10-16T09:46:32.962Z,19.10
2022-10-16T09:49:02.806Z,19.20
2022-10-16T09:51:33.730Z,19.50
2022-10-16T09:54:14.503Z,19.70
2022-10-16T09:56:42.767Z,19.80
2022-10-16T09:59:14.116Z,19.90
2022-10-16T10:01:44.969Z,19.90
2022-10-16T10:04:13.648Z,19.90
2022-10-16T10:06:46.792Z,19.80
2022-10-16T10:09:24.612Z,19.80
2022-10-16T10:11:55.196Z,19.90
2022-10-16T10:14:29.619Z,19.90
2022-10-16T10:17:13.108Z,19.90
2022-10-16T10:19:42.859Z,19.90
2022-10-16T10:22:27.075Z,19.80
2022-10-16T10:25:20.665Z,19.70
2022-10-16T10:28:15.729Z,19.60
2022-10-16T10:30:50.918Z,19.50
2022-10-16T10:33:31.157Z,19.50
2022-10-16T10:36:09.659Z,19.40
2022-10-16T10:38:46.239Z,19.20
2022-10-16T10:41:31.351Z,19.20
2022-10-16T10:44:08.417Z,19.20
2022-10-16T10:46:45.527Z,19.30
2022-10-16T10:49:35.218Z,19.40
2022-10-16T10:52:19.020Z,19.50
2022-10-16T10:54:56.814Z,19.60
2022-10-16T10:57:30.882Z,19.80
2022-10-16T11:00:18.444Z,19.90
2022-10-16T11:02:52.958Z,20.00
2022-10-16T11:05:44.055Z,20.10
2022-10-16T11:08:18.959Z,20.30
2022-10-16T11:10:55.041Z,20.40
2022-10-16T11:13:32.424Z,20.40
2022-10-16T11:16:03.868Z,20.50
2022-10-16T11:18:41.873Z,20.50
2022-10-16T11:21:12.845Z,20.60
2022-10-16T11:23:46.242Z,20.50
2022-10-16T11:26:20.866Z,20.50
2022-10-16T11:28:52.849Z,20.50
2022-10-16T11:31:29.847Z,20.50
2022-10-16T11:34:04.805Z,20.50
2022-10-16T11:36:38.662Z,20.50
2022-10-16T11:39:20.301Z,20.50
2022-10-16T11:41:51.365Z,20.50
2022-10-16T11:44:36.418Z,20.50
2022-10-16T11:50:06.814Z,20.60
2022-10-16T11:52:42.827Z,20.70
2022-10-16T11:55:18.790Z,20.70
2022-10-16T11:57:51.969Z,20.80
2022-10-16T12:00:26.402Z,20.80
2022-10-16T12:03:05.625Z,20.80
2022-10-16T12:05:48.708Z,20.80
2022-10-16T12:08:18.683Z,20.80
2022-10-16T12:10:48.164Z,20.90
2022-10-16T12:13:38.333Z,20.90
2022-10-16T12:16:20.494Z,20.90
2022-10-16T12:18:49.747Z,20.90
2022-10-16T12:21:20.134Z,20.90
2022-10-16T12:23:53.160Z,21.00
2022-10-16T12:26:28.814Z,21.00
2022-10-16T12:28:57.985Z,21.10
2022-10-16T12:31:49.647Z,21.10
2022-10-16T12:34:30.834Z,21.10
2022-10-16T12:37:12.202Z,21.20
2022-10-16T12:39:40.322Z,21.20
2022-10-16T12:42:23.452Z,21.20
2022-10-16T12:44:51.573Z,21.20
2022-10-16T12:47:26.405Z,21.20
2022-10-16T12:49:55.978Z,21.30
2022-10-16T12:52:36.973Z,21.30
2022-10-16T12:55:06.912Z,21.30
2022-10-16T12:57:48.724Z,21.20
2022-10-16T13:00:27.360Z,21.30
2022-10-16T13:03:24.370Z,21.30
2022-10-16T13:06:04.439Z,21.30
2022-10-16T13:08:46.234Z,21.30
2022-10-16T13:11:23.055Z,21.40
2022-10-16T13:14:28.148Z,21.30
2022-10-16T13:17:03.612Z,21.30
2022-10-16T13:19:39.494Z,21.30
2022-10-16T13:22:14.178Z,21.30
2022-10-16T13:24:55.437Z,21.40
2022-10-16T13:27:36.135Z,21.50
2022-10-16T13:30:14.535Z,21.50
2022-10-16T13:32:45.578Z,21.50
2022-10-16T13:35:26.338Z,21.50
2022-10-16T13:38:06.204Z,21.60
2022-10-16T13:40:35.577Z,21.60
2022-10-16T13:43:03.875Z,21.60
2022-10-16T13:45:31.876Z,21.60
2022-10-16T13:48:07.263Z,21.60
2022-10-16T13:50:36.680Z,21.50
2022-10-16T13:53:08.538Z,21.50
2022-10-16T13:55:36.540Z,21.40
2022-10-16T13:58:09.620Z,21.40
2022-10-16T14:03:13.608Z,21.20
2022-10-16T14:05:46.785Z,21.20
2022-10-16T14:08:15.095Z,21.20
2022-10-16T14:10:43.485Z,21.20
2022-10-16T14:13:20.060Z,21.20
2022-10-16T14:15:51.400Z,21.20
2022-10-16T14:18:22.425Z,21.20
2022-10-16T14:20:52.635Z,21.20
2022-10-16T14:23:23.722Z,21.20
2022-10-16T14:25:51.874Z,21.20
2022-10-16T14:28:21.972Z,21.10
2022-10-16T14:30:55.079Z,21.10
2022-10-16T14:33:25.356Z,21.10
2022-10-16T14:36:06.733Z,21.10
2022-10-16T14:38:35.475Z,21.00
2022-10-16T14:41:05.090Z,21.00
2022-10-16T14:43:36.763Z,21.00
2022-10-16T14:46:08.661Z,21.00
2022-10-16T14:48:36.655Z,21.00
2022-10-16T14:51:10.769Z,21.00
2022-10-16T14:53:38.790Z,21.00
2022-10-16T14:56:09.482Z,21.00
2022-10-16T14:58:37.576Z,21.00
2022-10-16T15:01:07.826Z,20.90
2022-10-16T15:03:35.736Z,20.90
2022-10-16T15:06:05.463Z,20.90
2022-10-16T15:08:33.401Z,20.90
2022-10-16T15:11:01.318Z,20.90
2022-10-16T15:13:29.414Z,20.80
2022-10-16T15:15:57.678Z,20.80
2022-10-16T15:18:25.986Z,20.70
2022-10-16T15:20:54.930Z,20.60
2022-10-16T15:23:27.666Z,20.40
2022-10-16T15:25:57.311Z,20.30
2022-10-16T15:28:26.749Z,20.30
2022-10-16T15:30:55.918Z,20.20
2022-10-16T15:33:27.904Z,20.10
2022-10-16T15:35:56.396Z,20.00
2022-10-16T15:38:26.562Z,20.00
2022-10-16T15:40:54.660Z,19.90
2022-10-16T15:43:22.687Z,19.90
2022-10-16T15:46:02.134Z,19.80
2022-10-16T15:48:30.581Z,19.80
2022-10-16T15:50:58.509Z,19.70
2022-10-16T15:53:27.853Z,19.60
2022-10-16T15:55:55.768Z,19.60
2022-10-16T15:58:23.743Z,19.50
2022-10-16T16:00:57.226Z,19.40
2022-10-16T16:03:25.664Z,19.30
2022-10-16T16:05:53.629Z,19.30
2022-10-16T16:08:21.828Z,19.20
2022-10-16T16:11:01.096Z,19.20
2022-10-16T16:13:29.436Z,19.10
2022-10-16T16:15:57.461Z,19.00
2022-10-16T16:18:26.006Z,18.90
2022-10-16T16:20:54.156Z,18.90
2022-10-16T16:23:23.071Z,18.80
2022-10-16T16:26:11.291Z,18.70
2022-10-16T16:28:41.083Z,18.60
2022-10-16T16:31:09.926Z,18.50
2022-10-16T16:33:37.861Z,18.50
2022-10-16T16:36:11.513Z,18.40
2022-10-16T16:38:41.003Z,18.30
2022-10-16T16:41:17.941Z,18.20
2022-10-16T16:43:46.264Z,18.20
2022-10-16T16:46:14.185Z,18.10
2022-10-16T16:48:42.712Z,18.10
2022-10-16T16:51:16.155Z,18.00
2022-10-16T16:53:45.007Z,18.00
2022-10-16T16:56:13.327Z,17.90
2022-10-16T16:58:42.744Z,17.90
2022-10-16T17:01:20.582Z,18.00
2022-10-16T17:03:51.636Z,18.00
2022-10-16T17:06:22.076Z,18.00
2022-10-16T17:08:50.734Z,18.00
2022-10-16T17:11:20.333Z,18.00
2022-10-16T17:13:53.908Z,18.00
2022-10-16T17:16:25.954Z,18.00
2022-10-16T17:18:54.213Z,18.00
2022-10-16T17:21:22.802Z,17.90
2022-10-16T17:23:53.471Z,17.90
2022-10-16T17:26:21.553Z,17.90
2022-10-16T17:28:53.266Z,17.80
2022-10-16T17:31:23.509Z,17.80
2022-10-16T17:33:52.557Z,17.80
2022-10-16T17:36:21.255Z,17.70
2022-10-16T17:38:49.825Z,17.60
2022-10-16T17:41:19.743Z,17.60
2022-10-16T17:43:48.582Z,17.50
2022-10-16T17:46:20.057Z,17.50
2022-10-16T17:48:50.753Z,17.50
2022-10-16T17:51:20.972Z,17.50
2022-10-16T17:53:50.158Z,17.50
2022-10-16T17:56:18.193Z,17.40
2022-10-16T17:58:51.436Z,17.40
2022-10-16T18:01:23.242Z,17.40
2022-10-16T18:03:52.802Z,17.40
2022-10-16T18:06:23.061Z,17.40
2022-10-16T18:08:51.780Z,17.40
2022-10-16T18:11:19.737Z,17.30
2022-10-16T18:13:47.791Z,17.30
2022-10-16T18:16:16.601Z,17.30
2022-10-16T18:18:46.429Z,17.20
2022-10-16T18:21:15.773Z,17.20
2022-10-16T18:23:49.083Z,17.20
2022-10-16T18:26:21.068Z,17.30
2022-10-16T18:28:50.933Z,17.30
2022-10-16T18:31:19.094Z,17.20
2022-10-16T18:33:50.501Z,17.20
2022-10-16T18:36:20.981Z,17.20
2022-10-16T18:38:49.006Z,17.20
2022-10-16T18:41:17.097Z,17.20
2022-10-16T18:43:44.998Z,17.20
2022-10-16T18:46:15.252Z,17.20
2022-10-16T18:48:43.359Z,17.10
2022-10-16T18:51:14.824Z,17.10
2022-10-16T18:53:44.808Z,17.00
2022-10-16T18:56:14.848Z,17.00
2022-10-16T18:58:44.319Z,16.90
2022-10-16T19:01:16.128Z,16.90
2022-10-16T19:03:44.943Z,16.90
2022-10-16T19:06:17.057Z,16.80
2022-10-16T19:08:45.096Z,16.90
2022-10-16T19:11:22.039Z,16.90
2022-10-16T19:13:50.745Z,16.90
2022-10-16T19:16:21.579Z,17.00
2022-10-16T19:18:50.640Z,17.10
2022-10-16T19:21:20.529Z,17.20
2022-10-16T19:23:52.733Z,17.20
2022-10-16T19:26:21.280Z,17.30
2022-10-16T19:28:49.776Z,17.30
2022-10-16T19:31:20.695Z,17.30
2022-10-16T19:33:48.964Z,17.30
2022-10-16T19:36:22.341Z,17.30
2022-10-16T19:38:54.579Z,17.30
2022-10-16T19:41:23.889Z,17.30
2022-10-16T19:43:52.718Z,17.40
2022-10-16T19:46:21.995Z,17.40
2022-10-16T19:48:53.289Z,17.40
2022-10-16T19:51:22.690Z,17.50
2022-10-16T19:53:55.750Z,17.50
2022-10-16T19:56:24.994Z,17.40
2022-10-16T19:58:54.874Z,17.50
2022-10-16T20:01:23.493Z,17.50
2022-10-16T20:03:51.589Z,17.50
2022-10-16T20:06:21.186Z,17.50
2022-10-16T20:08:52.724Z,17.50
2022-10-16T20:11:22.712Z,17.50
2022-10-16T20:13:51.001Z,17.50
2022-10-16T20:16:19.974Z,17.50
2022-10-16T20:18:48.935Z,17.50
2022-10-16T20:21:18.366Z,17.50
2022-10-16T20:23:48.967Z,17.50
2022-10-16T20:26:20.061Z,17.50
2022-10-16T20:28:48.059Z,17.40
2022-10-16T20:31:20.729Z,17.50
2022-10-16T20:33:48.812Z,17.40
2022-10-16T20:36:18.108Z,17.40
2022-10-16T20:38:46.614Z,17.40
2022-10-16T20:41:15.097Z,17.40
2022-10-16T20:43:46.534Z,17.40
2022-10-16T20:46:17.014Z,17.40
2022-10-16T20:48:46.672Z,17.40
2022-10-16T20:51:17.475Z,17.40
2022-10-16T20:53:46.479Z,17.40
2022-10-16T20:56:15.774Z,17.40
2022-10-16T20:58:45.753Z,17.30
2022-10-16T21:01:15.853Z,17.30
2022-10-16T21:03:44.111Z,17.30
2022-10-16T21:06:12.686Z,17.30
2022-10-16T21:08:42.636Z,17.20
2022-10-16T21:11:12.357Z,17.20
2022-10-16T21:13:40.644Z,17.20
2022-10-16T21:16:11.370Z,17.20
2022-10-16T21:18:44.243Z,17.20
2022-10-16T21:21:19.717Z,17.20
2022-10-16T21:23:47.741Z,17.20
2022-10-16T21:26:15.734Z,17.10
2022-10-16T21:28:43.709Z,17.10
2022-10-16T21:31:14.376Z,17.10
2022-10-16T21:33:42.699Z,17.10
2022-10-16T21:36:14.982Z,17.10
2022-10-16T21:38:43.222Z,17.00
2022-10-16T21:41:16.504Z,17.00
2022-10-16T21:43:44.803Z,17.00
2022-10-16T21:46:14.920Z,17.00
2022-10-16T21:48:43.810Z,17.00
2022-10-16T21:51:12.936Z,17.00
2022-10-16T21:53:41.545Z,17.00
2022-10-16T21:56:14.483Z,17.00
2022-10-16T21:58:42.973Z,16.90
2022-10-16T22:01:13.839Z,16.90
2022-10-16T22:03:42.133Z,16.90
2022-10-16T22:06:11.494Z,16.90
2022-10-16T22:08:40.400Z,16.90
2022-10-16T22:11:10.149Z,16.80
2022-10-16T22:13:38.872Z,16.80
2022-10-16T22:16:07.359Z,16.70
2022-10-16T22:18:38.104Z,16.70
2022-10-16T22:21:08.237Z,16.70
2022-10-16T22:23:36.585Z,16.70
2022-10-16T22:26:07.405Z,16.70
2022-10-16T22:28:35.781Z,16.60
2022-10-16T22:31:05.084Z,16.60
2022-10-16T22:36:04.345Z,16.60
2022-10-16T22:38:32.839Z,16.60
2022-10-16T22:41:03.066Z,16.50
2022-10-16T22:43:31.177Z,16.50
2022-10-16T22:46:03.624Z,16.50
2022-10-16T22:48:31.744Z,16.50
2022-10-16T22:50:59.802Z,16.50
2022-10-16T22:53:29.517Z,16.50
2022-10-16T22:55:57.585Z,16.50
2022-10-16T22:58:26.091Z,16.50
2022-10-16T23:00:54.479Z,16.50
2022-10-16T23:03:22.626Z,16.50
2022-10-16T23:05:50.605Z,16.50
2022-10-16T23:08:18.785Z,16.50
2022-10-16T23:10:49.585Z,16.50
2022-10-16T23:13:17.777Z,16.50
2022-10-16T23:15:46.491Z,16.50
2022-10-16T23:18:14.499Z,16.50
2022-10-16T23:20:42.869Z,16.40
2022-10-16T23:23:11.187Z,16.50
2022-10-16T23:25:45.664Z,16.50
2022-10-16T23:30:43.240Z,16.40
2022-10-16T23:33:11.281Z,16.40
2022-10-16T23:35:41.315Z,16.50
2022-10-16T23:38:09.335Z,16.40
2022-10-16T23:40:37.325Z,16.40
2022-10-16T23:43:05.279Z,16.40
2022-10-16T23:45:34.705Z,16.40
2022-10-16T23:48:02.653Z,16.30
2022-10-16T23:50:30.748Z,16.30
2022-10-16T23:52:58.867Z,16.30
2022-10-16T23:55:26.843Z,16.30
2022-10-16T23:57:54.808Z,16.30
